Prestwick, United Kingdom

9:53 AM BST on March 26, 2017 (GMT +0100)
Prestwick | | Change Station

Elev 66 ft 55.50 °N, 4.58 °W | Updated 33 minutes ago

Partly Cloudy
Partly Cloudy
45 °F
Feels Like 45 °F
N
0
Wind Variable Wind from North

Today
High -- | Low -- °F
--% Chance of Precip.
Yesterday
High -- | Low -- °F
Precip. -- in
Pressure 30.39 in
Visibility 6.2 miles
Clouds Few 3000 ft
Dew Point 34 °F
Humidity 66%
Rainfall 0.00 in
Snow Depth Not available.
7:04 AM 7:44 PM
Waning Crescent, 4% visible
METAR EGPK 260820Z 00000KT 9999 FEW030 07/01 Q1029
Pressure 30.39 in
Visibility 6.2 miles
Clouds Few 3000 ft
Dew Point 34 °F
Humidity 66%
Rainfall 0.00 in
Snow Depth Not available.
7:04 AM 7:44 PM
Waning Crescent, 4% visible
METAR EGPK 260820Z 00000KT 9999 FEW030 07/01 Q1029

Get Severe Weather Alerts

Thanks for signing up!

Be on the lookout for a verification email in your inbox.

You'll start receiving the daily forecast at 8 AM.

×

10-Day Weather Forecast

×

Almanac

Astronomy

Mar. 26, 2017 Rise Set
Actual Time
Civil Twilight
Nautical Twilight
Astronomical Twilight
Moon
Length of Visible Light
Length of Day
Tomorrow will be .
, % of the Moon is Illuminated

Today's Extremes

Country Highs Country Lows

Community

WunderPhotos

Upload Photos

1,962,540 photos uploaded!

WunderBlog® & News

Nearby

Air Quality

  Air Quality AQ Index Pollutant
Not available.

Snow Depth

Station Depth Elevation

Earthquake Activity

City Distance Mag. Time & Date
Minimum magnitude displayed is 2.5.

Earthquake Activity

City Distance Mag. Time & Date
Minimum magnitude displayed is 2.5.

Coastal Water Temperatures

Place Temperature

Stations

Nearby Weather Stations

Station Location Temp. Windchill Dew Point Humidity Wind Precip. Elev Updated Type